Portada
METAR-TAF:

METAR-TAF

Aeroports :

Taiyuan, Xina

latitud: 37-47N, longitud: 112-33E, altitud: 779 m

Observació

L'informe es va fer fa 26 minuts, a les 15:00 UTC
Vent 4 kt del Est/Sud-Est, variant entre Nord-Est i Sud-Oest
Temperatura 12°C
Humitat 47%
Pressió 1019 hPa
Visibilitat: 8000 m

METAR: ZBYN 241500Z 11002MPS 050V220 8000 NSC 12/01 Q1019 NOSIG

Hora: 23:26 (15:26 UTC)

Pronòstic

L'informe es va fer fa 6 hores i 16 minuts, a les 09:10 UTC
Pronòstic vàlid del 24 a les 12 UTC al 25 a les 12 UTC
Vent 6 kt del Est
Visibilitat: 3000 m
calitja

TAF: ZBYN 240910Z 2412/2512 09003MPS 3000 HZ NSC TX19/2507Z TN00/2422Z

Observacions i pronòstics meteorològics de més de 4000 aeroports (METAR i TAF).

Les estacions disponibles són els punts grocs i vermells al mapa.

Posi el ratolí al punt desitjat per veure el nom de l'estació.

Feu clic per veure les observacions i els pronòstics meteorològics.

Per canviar el mapa: feu clic els botons verds amb una creu de color negre per apropar; al botó verd amb un guió per allunyar la imatge; o en les fletxes verdes per a mapes adjacents.


METAR-TAF: